Time;durP1;ratioP1;P1;durP2;ratioP2;P2;SDS_P1;SDS_P2;PMS_P1;PMS_P2;Temp;Humidity;BMP_temperature;BMP_pressure;BME280_temperature;BME280_humidity;BME280_pressure;Samples;Min_cycle;Max_cycle;Signal;HPM_P1;HPM_P2
2023/11/03 00:01:17;;;;;;;13.30;10.20;;;;;;;7.98;78.49;99327.86;105781;1253;60440;-79
2023/11/03 00:03:45;;;;;;;12.60;11.30;;;;;;;7.93;78.77;99326.79;105892;1255;60519;-79
2023/11/03 00:06:12;;;;;;;15.10;11.00;;;;;;;7.89;79.04;99322.14;106190;1255;73920;-75
2023/11/03 00:08:41;;;;;;;18.80;11.00;;;;;;;7.83;79.06;99321.66;105848;1258;68984;-77
2023/11/03 00:11:09;;;;;;;14.40;10.20;;;;;;;7.79;79.27;99324.39;105745;1258;71479;-77
2023/11/03 00:13:36;;;;;;;13.50;10.30;;;;;;;7.84;79.38;99319.13;105695;1254;60876;-75
2023/11/03 00:16:04;;;;;;;15.90;11.70;;;;;;;7.87;79.27;99321.92;105699;1254;60435;-76
2023/11/03 00:18:31;;;;;;;16.90;12.30;;;;;;;7.83;79.48;99328.94;105699;1253;71652;-78
2023/11/03 00:21:00;;;;;;;16.60;12.60;;;;;;;7.76;80.07;99329.98;105803;1258;69466;-76
2023/11/03 00:23:28;;;;;;;14.40;11.40;;;;;;;7.70;80.16;99334.85;105744;1257;70137;-75
2023/11/03 00:25:55;;;;;;;18.40;12.10;;;;;;;7.64;80.12;99336.95;105747;1258;61781;-76
2023/11/03 00:28:23;;;;;;;13.30;11.90;;;;;;;7.69;80.17;99338.61;105838;1253;60543;-76
2023/11/03 00:30:51;;;;;;;15.70;13.10;;;;;;;7.73;80.23;99337.33;105895;1254;74131;-75
2023/11/03 00:33:20;;;;;;;16.90;14.00;;;;;;;7.69;80.55;99332.33;105752;1259;69002;-77
2023/11/03 00:35:48;;;;;;;18.10;14.70;;;;;;;7.63;80.61;99329.73;105966;1253;72689;-75
2023/11/03 00:38:15;;;;;;;19.50;15.60;;;;;;;7.58;80.63;99327.13;105786;1256;60439;-76
2023/11/03 00:40:43;;;;;;;17.80;13.20;;;;;;;7.53;80.94;99324.59;105785;1259;60362;-76
2023/11/03 00:43:11;;;;;;;15.70;12.80;;;;;;;7.58;80.89;99324.64;105571;1253;72638;-80
2023/11/03 00:45:38;;;;;;;17.40;13.70;;;;;;;7.63;81.00;99332.16;105612;1261;69219;-77
2023/11/03 00:48:06;;;;;;;15.10;13.00;;;;;;;7.59;81.50;99333.65;105728;1256;70476;-73
2023/11/03 00:50:33;;;;;;;20.40;14.40;;;;;;;7.54;81.98;99334.74;105753;1253;60603;-76
2023/11/03 00:53:00;;;;;;;17.20;14.50;;;;;;;7.48;82.15;99337.06;105724;1253;60519;-72
2023/11/03 00:55:28;;;;;;;18.90;13.10;;;;;;;7.43;82.30;99340.80;105808;1260;73867;-77
2023/11/03 00:57:55;;;;;;;16.50;12.20;;;;;;;7.47;82.52;99342.11;105815;1254;69350;-77
2023/11/03 01:00:25;;;;;;;16.70;13.40;;;;;;;7.52;82.48;99342.73;105830;1256;73167;-77
2023/11/03 01:02:53;;;;;;;17.80;14.10;;;;;;;7.48;82.87;99340.13;106026;1255;60521;-74
2023/11/03 01:05:22;;;;;;;17.40;14.00;;;;;;;7.43;83.21;99340.77;105750;1258;60332;-73
2023/11/03 01:07:49;;;;;;;17.50;13.10;;;;;;;7.40;83.35;99342.34;105660;1254;72901;-73
2023/11/03 01:10:20;;;;;;;16.50;12.90;;;;;;;7.43;83.32;99347.45;105737;1259;69269;-74
2023/11/03 01:12:49;;;;;;;19.30;13.50;;;;;;;7.49;83.26;99340.90;105687;1257;71933;-74
2023/11/03 01:15:19;;;;;;;16.60;13.70;;;;;;;7.44;83.40;99339.74;105717;1256;60506;-73
2023/11/03 01:17:50;;;;;;;20.40;14.80;;;;;;;7.38;83.80;99344.95;105899;1258;60416;-74
2023/11/03 01:20:27;;;;;;;15.90;13.50;;;;;;;7.33;83.98;99346.40;105820;1255;72774;-71
2023/11/03 01:22:57;;;;;;;14.30;11.50;;;;;;;7.38;83.89;99347.32;105666;1254;70456;-76
2023/11/03 01:25:24;;;;;;;15.30;12.20;;;;;;;7.40;84.12;99346.21;105821;1254;71687;-74
2023/11/03 01:27:52;;;;;;;16.30;12.70;;;;;;;7.34;84.51;99344.22;105786;1259;60502;-74
2023/11/03 01:30:20;;;;;;;18.40;13.70;;;;;;;7.26;84.89;99342.37;105448;1254;60624;-72
2023/11/03 01:32:52;;;;;;;19.70;15.10;;;;;;;7.20;84.94;99340.11;105715;1256;72775;-76
2023/11/03 01:35:24;;;;;;;18.10;13.10;;;;;;;7.24;85.09;99337.46;105823;1256;68751;-76
2023/11/03 01:37:53;;;;;;;16.00;12.10;;;;;;;7.27;85.06;99336.55;105806;1258;73064;-77
2023/11/03 01:40:20;;;;;;;17.30;12.20;;;;;;;7.22;85.62;99338.02;105823;1258;60435;-75
2023/11/03 01:42:49;;;;;;;15.70;12.10;;;;;;;7.16;86.07;99339.70;105815;1254;60437;-75
2023/11/03 01:45:17;;;;;;;15.20;11.80;;;;;;;7.12;86.62;99335.02;105808;1254;72599;-76
2023/11/03 01:47:45;;;;;;;16.70;12.00;;;;;;;7.16;86.62;99337.74;105803;1256;69011;-75
2023/11/03 01:50:13;;;;;;;16.80;12.30;;;;;;;7.19;86.64;99339.38;105627;1258;70288;-77
2023/11/03 01:52:41;;;;;;;16.30;13.20;;;;;;;7.15;86.79;99342.90;105592;1256;60467;-79
2023/11/03 01:55:08;;;;;;;18.90;14.10;;;;;;;7.11;86.74;99341.94;105913;1257;60431;-81
2023/11/03 01:57:38;;;;;;;15.90;13.00;;;;;;;7.07;87.00;99343.52;105700;1256;72982;-79
2023/11/03 02:00:07;;;;;;;19.00;11.60;;;;;;;7.13;87.06;99344.89;105685;1260;69257;-76
2023/11/03 02:02:34;;;;;;;15.90;12.20;;;;;;;7.18;86.86;99341.55;105725;1259;73561;-75
2023/11/03 02:05:02;;;;;;;14.60;12.30;;;;;;;7.15;87.12;99341.15;105647;1258;60558;-77
2023/11/03 02:07:30;;;;;;;16.90;13.60;;;;;;;7.11;87.36;99344.58;105774;1260;60493;-75
2023/11/03 02:09:58;;;;;;;15.60;13.30;;;;;;;7.06;87.62;99346.85;105703;1254;72936;-74
2023/11/03 02:12:26;;;;;;;17.30;12.80;;;;;;;7.09;87.53;99352.73;105645;1254;70417;-76
2023/11/03 02:14:53;;;;;;;17.00;12.90;;;;;;;7.12;87.49;99354.56;106318;1259;71451;-76
2023/11/03 02:17:21;;;;;;;16.30;13.80;;;;;;;7.08;87.51;99359.85;105838;1256;60532;-73
2023/11/03 02:19:48;;;;;;;18.10;15.10;;;;;;;7.01;88.07;99355.77;105636;1255;60427;-74
2023/11/03 02:22:16;;;;;;;14.50;12.70;;;;;;;6.94;88.34;99352.45;105681;1259;72554;-76
2023/11/03 02:24:43;;;;;;;16.80;12.70;;;;;;;6.97;88.31;99357.36;106016;1259;68847;-75
2023/11/03 02:27:11;;;;;;;19.60;13.30;;;;;;;7.01;88.10;99351.21;105802;1256;71361;-74
2023/11/03 02:29:38;;;;;;;16.70;13.80;;;;;;;6.97;88.31;99351.45;105684;1256;60438;-80
2023/11/03 02:32:06;;;;;;;16.90;13.20;;;;;;;6.90;88.55;99354.58;105853;1258;60394;-78
2023/11/03 02:34:33;;;;;;;18.10;13.30;;;;;;;6.85;88.97;99358.92;106344;1254;73853;-75
2023/11/03 02:37:01;;;;;;;19.80;13.50;;;;;;;6.91;88.63;99356.80;105647;1256;70322;-76
2023/11/03 02:39:28;;;;;;;16.60;13.00;;;;;;;6.93;89.02;99365.29;105774;1256;72724;-74
2023/11/03 02:41:55;;;;;;;18.90;13.80;;;;;;;6.86;89.13;99355.36;105539;1256;60621;-72
2023/11/03 02:44:23;;;;;;;16.70;14.00;;;;;;;6.79;89.10;99360.11;105672;1256;60524;-73
2023/11/03 02:46:51;;;;;;;17.10;13.40;;;;;;;6.73;89.53;99362.30;105766;1258;74195;-71
2023/11/03 02:49:18;;;;;;;17.90;11.60;;;;;;;6.78;89.41;99357.75;105655;1256;68897;-72
2023/11/03 02:51:45;;;;;;;15.40;12.90;;;;;;;6.83;89.69;99352.18;105628;1254;72656;-74
2023/11/03 02:54:14;;;;;;;19.70;14.10;;;;;;;6.77;89.87;99355.34;105672;1256;60547;-74
2023/11/03 02:56:41;;;;;;;18.30;13.70;;;;;;;6.70;90.39;99355.73;105671;1256;60349;-76
2023/11/03 02:59:09;;;;;;;16.40;12.50;;;;;;;6.67;90.50;99355.85;105619;1258;73816;-75
2023/11/03 03:01:37;;;;;;;15.90;12.50;;;;;;;6.74;90.20;99360.40;105572;1261;67963;-75
2023/11/03 03:04:05;;;;;;;17.00;13.60;;;;;;;6.76;90.29;99358.80;105589;1256;71659;-74
2023/11/03 03:06:33;;;;;;;16.60;13.50;;;;;;;6.72;90.36;99355.89;105610;1258;60506;-75
2023/11/03 03:09:01;;;;;;;18.40;14.00;;;;;;;6.67;90.44;99355.16;105798;1258;60382;-73
2023/11/03 03:11:29;;;;;;;16.50;12.60;;;;;;;6.69;90.23;99357.55;105647;1255;72922;-73
2023/11/03 03:13:56;;;;;;;16.30;11.90;;;;;;;6.78;89.96;99359.00;105603;1256;70194;-73
2023/11/03 03:16:25;;;;;;;16.30;12.70;;;;;;;6.77;90.03;99357.48;105625;1256;72431;-79
2023/11/03 03:18:52;;;;;;;18.40;13.60;;;;;;;6.72;90.32;99359.36;105908;1256;60818;-77
2023/11/03 03:21:21;;;;;;;16.50;13.40;;;;;;;6.69;90.44;99360.58;105873;1258;60371;-73
2023/11/03 03:23:49;;;;;;;15.40;12.20;;;;;;;6.73;90.15;99364.05;105845;1258;74091;-72
2023/11/03 03:26:16;;;;;;;16.80;13.60;;;;;;;6.78;90.14;99366.03;105786;1254;68720;-73
2023/11/03 03:28:43;;;;;;;18.30;14.40;;;;;;;6.74;90.26;99366.56;105839;1256;72477;-73
2023/11/03 03:31:11;;;;;;;16.30;14.20;;;;;;;6.70;90.33;99360.13;105664;1255;60506;-75
2023/11/03 03:33:38;;;;;;;16.90;13.50;;;;;;;6.66;90.56;99359.27;105534;1254;60461;-74
2023/11/03 03:36:09;;;;;;;17.90;13.30;;;;;;;6.73;90.37;99357.91;105623;1254;74120;-75
2023/11/03 03:38:37;;;;;;;19.10;13.60;;;;;;;6.78;90.30;99353.69;105699;1256;70355;-68
2023/11/03 03:41:10;;;;;;;17.60;13.70;;;;;;;6.74;90.36;99354.77;105619;1256;71206;-70
2023/11/03 03:43:38;;;;;;;19.00;15.30;;;;;;;6.68;90.47;99355.89;105587;1256;60516;-74
2023/11/03 03:46:06;;;;;;;18.90;14.40;;;;;;;6.65;90.47;99351.48;105858;1254;61192;-73
2023/11/03 03:48:34;;;;;;;17.90;12.70;;;;;;;6.71;90.23;99348.73;105799;1256;73120;-71
2023/11/03 03:51:01;;;;;;;16.10;13.10;;;;;;;6.77;90.09;99351.18;105597;1256;71550;-72
2023/11/03 03:53:30;;;;;;;18.10;13.90;;;;;;;6.73;90.15;99346.08;105573;1260;71418;-76
2023/11/03 03:55:57;;;;;;;18.40;15.10;;;;;;;6.68;90.55;99343.45;105610;1256;60436;-75
2023/11/03 03:58:25;;;;;;;16.40;13.40;;;;;;;6.64;90.73;99337.52;105585;1254;60960;-75
2023/11/03 04:00:52;;;;;;;15.70;12.00;;;;;;;6.71;90.48;99333.80;105636;1254;72702;-75
2023/11/03 04:03:19;;;;;;;14.60;12.90;;;;;;;6.78;90.37;99339.45;105814;1261;67988;-74
2023/11/03 04:05:47;;;;;;;16.60;13.00;;;;;;;6.76;90.39;99333.52;105680;1256;72556;-74
2023/11/03 04:08:14;;;;;;;17.60;13.90;;;;;;;6.71;90.34;99331.85;105713;1260;60461;-74
2023/11/03 04:10:42;;;;;;;16.80;13.50;;;;;;;6.67;90.40;99329.98;105725;1261;60555;-77
2023/11/03 04:13:09;;;;;;;17.60;12.00;;;;;;;6.74;90.15;99330.39;105798;1253;72611;-76
2023/11/03 04:15:37;;;;;;;17.70;11.40;;;;;;;6.78;89.86;99339.41;105905;1258;69040;-74
2023/11/03 04:18:04;;;;;;;14.90;12.10;;;;;;;6.74;89.97;99336.34;105940;1254;71473;-73
2023/11/03 04:20:32;;;;;;;18.10;13.40;;;;;;;6.68;90.11;99332.37;105978;1253;60537;-74
2023/11/03 04:22:59;;;;;;;14.90;11.50;;;;;;;6.64;90.21;99328.17;105709;1253;60329;-76
2023/11/03 04:25:27;;;;;;;13.20;11.40;;;;;;;6.70;89.98;99325.98;105753;1259;73846;-73
2023/11/03 04:27:54;;;;;;;13.60;11.20;;;;;;;6.76;89.74;99324.51;105765;1258;69076;-73
2023/11/03 04:30:21;;;;;;;14.70;12.10;;;;;;;6.74;89.94;99331.23;105774;1253;72683;-73
2023/11/03 04:32:49;;;;;;;16.00;13.00;;;;;;;6.69;90.05;99329.44;105809;1256;60486;-76
2023/11/03 04:35:16;;;;;;;18.40;12.30;;;;;;;6.65;89.94;99331.73;105740;1258;60464;-74
2023/11/03 04:37:44;;;;;;;17.40;11.60;;;;;;;6.71;89.79;99328.52;105730;1258;73835;-72
2023/11/03 04:40:12;;;;;;;18.90;11.70;;;;;;;6.74;89.62;99325.72;105811;1253;70114;-74
2023/11/03 04:42:40;;;;;;;16.10;12.90;;;;;;;6.68;89.65;99322.60;105707;1253;72475;-70
2023/11/03 04:45:08;;;;;;;16.40;13.30;;;;;;;6.63;89.86;99324.57;105677;1260;60398;-72
2023/11/03 04:47:35;;;;;;;14.90;12.20;;;;;;;6.59;89.81;99324.61;105715;1253;60388;-72
2023/11/03 04:50:06;;;;;;;17.10;12.10;;;;;;;6.64;89.65;99319.10;105895;1253;73849;-72
2023/11/03 04:52:34;;;;;;;14.00;11.70;;;;;;;6.68;89.78;99322.44;105771;1253;69545;-73
2023/11/03 04:55:02;;;;;;;18.10;13.50;;;;;;;6.64;89.72;99326.20;105806;1253;72343;-71
2023/11/03 04:57:30;;;;;;;15.70;12.90;;;;;;;6.59;90.07;99323.38;105750;1254;60605;-74
2023/11/03 04:59:57;;;;;;;18.60;13.20;;;;;;;6.54;90.04;99326.84;105481;1253;60407;-73
2023/11/03 05:02:28;;;;;;;13.80;11.50;;;;;;;6.59;89.84;99333.62;105785;1254;74051;-73
2023/11/03 05:04:56;;;;;;;15.00;11.40;;;;;;;6.64;89.66;99335.34;105858;1258;69108;-72
2023/11/03 05:07:23;;;;;;;14.90;11.90;;;;;;;6.61;89.87;99334.66;105768;1253;72533;-72
2023/11/03 05:09:51;;;;;;;14.60;12.30;;;;;;;6.56;89.75;99331.96;105696;1258;60431;-73
2023/11/03 05:12:19;;;;;;;18.00;11.60;;;;;;;6.51;89.79;99328.40;105657;1253;60515;-74
2023/11/03 05:14:46;;;;;;;13.40;11.20;;;;;;;6.56;89.61;99332.27;105691;1253;73674;-73
2023/11/03 05:17:13;;;;;;;13.90;11.40;;;;;;;6.61;89.38;99335.12;105702;1258;69617;-73
2023/11/03 05:19:41;;;;;;;14.20;11.50;;;;;;;6.59;89.50;99337.25;105606;1256;72961;-74
2023/11/03 05:22:09;;;;;;;16.60;12.60;;;;;;;6.56;89.63;99337.96;105577;1256;60464;-75
2023/11/03 05:24:36;;;;;;;14.00;11.40;;;;;;;6.55;89.64;99343.48;105761;1259;60562;-76
2023/11/03 05:27:04;;;;;;;14.00;10.40;;;;;;;6.63;89.19;99346.85;105892;1252;72637;-77
2023/11/03 05:29:32;;;;;;;13.10;10.90;;;;;;;6.73;89.06;99347.17;105915;1258;70525;-75
2023/11/03 05:31:59;;;;;;;14.30;11.80;;;;;;;6.73;89.06;99347.61;105838;1253;72677;-77
2023/11/03 05:34:27;;;;;;;14.10;11.20;;;;;;;6.71;89.02;99349.11;105731;1253;61101;-74
2023/11/03 05:36:54;;;;;;;14.00;10.20;;;;;;;6.73;88.89;99355.46;105768;1253;60419;-75
2023/11/03 05:39:22;;;;;;;12.50;9.50;;;;;;;6.82;88.53;99354.02;105643;1253;72635;-77
2023/11/03 05:41:50;;;;;;;12.70;9.90;;;;;;;6.92;88.09;99346.96;105864;1253;68392;-76
2023/11/03 05:44:17;;;;;;;12.70;10.10;;;;;;;6.96;87.96;99346.41;105868;1253;71411;-75
2023/11/03 05:46:45;;;;;;;14.80;10.80;;;;;;;6.96;87.78;99344.89;105905;1254;60424;-72
2023/11/03 05:49:12;;;;;;;15.70;10.50;;;;;;;6.97;87.72;99342.83;105707;1257;60273;-75
2023/11/03 05:51:40;;;;;;;13.50;10.60;;;;;;;6.99;87.49;99342.55;105788;1257;73878;-75
2023/11/03 05:54:07;;;;;;;11.80;9.80;;;;;;;7.11;86.92;99340.19;105720;1258;68707;-75
2023/11/03 05:56:34;;;;;;;15.60;11.40;;;;;;;7.19;86.54;99340.23;105874;1256;72686;-74
2023/11/03 05:59:02;;;;;;;14.70;11.80;;;;;;;7.20;86.58;99336.09;105763;1256;60508;-75
2023/11/03 06:01:33;;;;;;;13.60;10.70;;;;;;;7.20;86.26;99333.07;106333;1253;60311;-77
2023/11/03 06:04:01;;;;;;;14.10;10.70;;;;;;;7.22;86.23;99325.50;106312;1257;75638;-78
2023/11/03 06:06:29;;;;;;;12.60;9.90;;;;;;;7.33;85.86;99324.52;106577;1252;69971;-74
2023/11/03 06:08:57;;;;;;;11.20;10.10;;;;;;;7.43;85.48;99327.45;105879;1254;72704;-79
2023/11/03 06:11:24;;;;;;;13.60;11.00;;;;;;;7.44;85.01;99327.85;105914;1256;60545;-81
2023/11/03 06:13:52;;;;;;;13.50;11.60;;;;;;;7.44;85.03;99327.69;106109;1258;60539;-81
2023/11/03 06:16:20;;;;;;;13.20;10.30;;;;;;;7.45;84.74;99323.66;106026;1253;73978;-81
2023/11/03 06:18:48;;;;;;;11.20;9.20;;;;;;;7.55;84.56;99320.38;105901;1258;70431;-78
2023/11/03 06:21:20;;;;;;;11.90;9.60;;;;;;;7.64;84.11;99320.45;105938;1258;72727;-78
2023/11/03 06:23:48;;;;;;;11.80;10.50;;;;;;;7.66;83.77;99319.86;105822;1257;60851;-77
2023/11/03 06:26:15;;;;;;;11.40;9.60;;;;;;;7.67;83.66;99324.74;105731;1251;455693;-76
2023/11/03 06:30:14;;;;;;;12.00;9.00;;;;;;;7.73;83.08;99328.60;102963;1295;601027;-80
2023/11/03 06:32:41;;;;;;;9.10;8.00;;;;;;;7.80;82.40;99321.79;105069;1271;60513;-79
2023/11/03 06:35:09;;;;;;;11.10;8.50;;;;;;;7.89;82.01;99313.31;105204;1271;61874;-76
2023/11/03 06:37:36;;;;;;;10.00;8.50;;;;;;;7.90;82.11;99307.36;105272;1266;73034;-78
2023/11/03 06:40:05;;;;;;;10.70;9.30;;;;;;;7.93;81.75;99310.52;105569;1271;70100;-79
2023/11/03 06:42:33;;;;;;;11.60;9.50;;;;;;;7.96;81.63;99313.42;105365;1271;73839;-78
2023/11/03 06:45:00;;;;;;;10.60;8.50;;;;;;;8.00;81.48;99305.07;105266;1270;250505;-82
2023/11/03 06:47:27;;;;;;;10.40;8.10;;;;;;;8.13;81.28;99304.37;105843;1256;63551;-80
2023/11/03 06:49:55;;;;;;;12.40;8.70;;;;;;;8.25;80.83;99309.77;105845;1254;70978;-79
2023/11/03 06:52:22;;;;;;;11.20;9.20;;;;;;;8.28;80.69;99308.98;105729;1256;69136;-79
2023/11/03 06:54:50;;;;;;;10.00;8.80;;;;;;;8.31;80.58;99302.02;105829;1253;71463;-78
2023/11/03 06:57:18;;;;;;;12.50;9.90;;;;;;;8.36;80.40;99302.17;105654;1258;59637;-80
2023/11/03 06:59:49;;;;;;;11.70;9.30;;;;;;;8.38;79.81;99308.66;105677;1260;59691;-78
2023/11/03 07:02:17;;;;;;;14.10;8.90;;;;;;;8.41;79.53;99304.95;105907;1254;72098;-80
2023/11/03 07:04:45;;;;;;;9.40;8.20;;;;;;;8.52;79.15;99307.88;105687;1254;68864;-81
2023/11/03 07:07:12;;;;;;;10.60;8.40;;;;;;;8.54;79.16;99302.59;105521;1257;71890;-79
2023/11/03 07:09:40;;;;;;;11.70;9.00;;;;;;;8.53;78.94;99302.33;105605;1256;60129;-79
2023/11/03 07:12:07;;;;;;;13.60;9.90;;;;;;;8.54;79.20;99304.52;105531;1260;59532;-80
2023/11/03 07:14:35;;;;;;;13.50;9.70;;;;;;;8.58;79.06;99308.93;105594;1254;72053;-80
2023/11/03 07:17:02;;;;;;;11.00;8.80;;;;;;;8.63;78.64;99305.76;105702;1254;70497;-79
2023/11/03 07:19:30;;;;;;;13.20;9.40;;;;;;;8.77;78.81;99309.39;106555;1256;71644;-80
2023/11/03 07:21:58;;;;;;;10.60;9.50;;;;;;;8.92;78.11;99306.69;106727;1256;60099;-78
2023/11/03 07:24:26;;;;;;;11.00;9.30;;;;;;;8.96;77.66;99311.41;105841;1254;59594;-81
2023/11/03 07:26:53;;;;;;;11.30;9.40;;;;;;;9.00;77.63;99306.77;106127;1253;71857;-78
2023/11/03 07:29:21;;;;;;;12.10;9.30;;;;;;;9.02;77.34;99301.05;106317;1254;69276;-78
2023/11/03 07:31:48;;;;;;;12.90;10.20;;;;;;;9.06;77.45;99307.84;106347;1254;72276;-79
2023/11/03 07:34:18;;;;;;;11.00;9.60;;;;;;;9.12;76.89;99311.92;106013;1254;62185;-80
2023/11/03 07:36:46;;;;;;;11.80;8.00;;;;;;;9.28;76.35;99312.84;105996;1254;59568;-78
2023/11/03 07:39:14;;;;;;;9.70;8.00;;;;;;;9.41;75.85;99320.10;105772;1255;72108;-78
2023/11/03 07:41:41;;;;;;;8.90;8.00;;;;;;;9.48;75.00;99315.27;105948;1258;68789;-78
2023/11/03 07:44:12;;;;;;;12.90;9.40;;;;;;;9.51;74.69;99316.25;106251;1253;71678;-81
2023/11/03 07:46:40;;;;;;;10.90;9.20;;;;;;;9.59;74.75;99328.52;106378;1253;60092;-78
2023/11/03 07:49:07;;;;;;;11.60;9.00;;;;;;;9.67;74.60;99324.92;106287;1254;60302;-80
2023/11/03 07:51:35;;;;;;;10.50;9.20;;;;;;;9.74;74.45;99326.70;105978;1255;73083;-79
2023/11/03 07:54:02;;;;;;;12.20;8.60;;;;;;;9.83;74.10;99322.98;105971;1258;69344;-79
2023/11/03 07:56:30;;;;;;;11.80;8.40;;;;;;;10.03;73.82;99325.48;105890;1256;72463;-78
2023/11/03 07:59:04;;;;;;;11.90;8.50;;;;;;;10.22;73.63;99326.86;105699;1254;60373;-79
2023/11/03 08:01:32;;;;;;;29.80;10.00;;;;;;;10.35;72.63;99320.80;106242;1254;59763;-79
2023/11/03 08:04:00;;;;;;;15.40;9.40;;;;;;;10.45;72.31;99325.11;106323;1257;73103;-78
2023/11/03 08:06:28;;;;;;;18.90;9.50;;;;;;;10.56;71.58;99319.85;106488;1257;69217;-79
2023/11/03 08:08:55;;;;;;;21.90;9.20;;;;;;;10.65;71.04;99327.37;105686;1260;72712;-80
2023/11/03 08:11:23;;;;;;;14.20;9.00;;;;;;;10.72;70.86;99327.08;105861;1253;60099;-78
2023/11/03 08:13:50;;;;;;;16.50;8.90;;;;;;;10.82;70.29;99327.56;105951;1253;59728;-77
2023/11/03 08:16:18;;;;;;;14.40;10.20;;;;;;;10.93;69.86;99321.98;106016;1253;72987;-77
2023/11/03 08:18:46;;;;;;;19.40;8.90;;;;;;;11.04;69.33;99324.80;105898;1253;70077;-79
2023/11/03 08:21:14;;;;;;;14.90;9.10;;;;;;;11.10;69.33;99318.84;105781;1259;71412;-79
2023/11/03 08:23:41;;;;;;;16.00;8.50;;;;;;;11.22;69.28;99324.52;105907;1254;59627;-79
2023/11/03 08:26:11;;;;;;;13.70;8.60;;;;;;;11.36;68.65;99310.90;106008;1254;60382;-79
2023/11/03 08:28:38;;;;;;;11.60;8.80;;;;;;;11.49;68.16;99314.27;105983;1254;71637;-77
2023/11/03 08:31:06;;;;;;;12.70;8.00;;;;;;;11.64;67.57;99303.85;106128;1255;67895;-78
2023/11/03 08:33:33;;;;;;;12.30;8.10;;;;;;;11.77;67.38;99306.35;105893;1259;72491;-78
2023/11/03 08:36:01;;;;;;;13.30;7.60;;;;;;;11.97;67.11;99299.71;106211;1253;62253;-77
2023/11/03 08:38:28;;;;;;;11.90;7.90;;;;;;;12.16;66.41;99292.04;105984;1256;59875;-81
2023/11/03 08:40:56;;;;;;;11.90;7.60;;;;;;;12.32;65.54;99289.92;106164;1254;75169;-81
2023/11/03 08:43:23;;;;;;;15.10;7.70;;;;;;;12.45;64.47;99293.66;106134;1253;70311;-79
2023/11/03 08:45:51;;;;;;;9.40;6.50;;;;;;;12.59;63.85;99290.86;106499;1256;74015;-80
2023/11/03 08:48:20;;;;;;;7.70;5.50;;;;;;;12.74;63.05;99287.30;106197;1253;60078;-81
2023/11/03 08:50:49;;;;;;;6.70;6.10;;;;;;;12.96;62.47;99296.85;106260;1254;61070;-76
2023/11/03 08:53:16;;;;;;;9.30;5.10;;;;;;;13.23;61.86;99284.28;106030;1254;71562;-76
2023/11/03 08:55:45;;;;;;;5.70;5.00;;;;;;;13.59;60.27;99286.29;106193;1253;70710;-84
2023/11/03 08:58:13;;;;;;;5.90;5.00;;;;;;;13.92;59.35;99276.34;106095;1259;74991;-77
2023/11/03 09:00:54;;;;;;;7.40;4.80;;;;;;;14.28;57.76;99272.89;106012;1254;59621;-78
2023/11/03 09:03:22;;;;;;;5.00;4.40;;;;;;;14.69;57.58;99266.84;105940;1254;60055;-78
2023/11/03 09:05:50;;;;;;;8.10;5.20;;;;;;;15.27;56.43;99272.27;106129;1259;72662;-80
2023/11/03 09:08:18;;;;;;;5.30;4.80;;;;;;;15.83;54.97;99259.52;106041;1253;69002;-82
2023/11/03 09:10:45;;;;;;;5.60;4.50;;;;;;;16.30;53.95;99246.85;106021;1253;72600;-81
2023/11/03 09:13:16;;;;;;;7.60;4.40;;;;;;;16.77;52.48;99243.23;106468;1255;59631;-81
2023/11/03 09:15:45;;;;;;;5.10;4.60;;;;;;;17.23;52.00;99233.23;106521;1253;60173;-81
2023/11/03 09:18:18;;;;;;;4.70;4.00;;;;;;;17.80;50.63;99231.22;107683;1253;73149;-82
2023/11/03 09:20:47;;;;;;;4.70;4.20;;;;;;;18.31;49.16;99224.12;107514;1257;72328;-82
2023/11/03 09:23:15;;;;;;;4.40;4.00;;;;;;;18.71;48.03;99222.98;106151;1256;72668;-83
2023/11/03 09:25:42;;;;;;;6.10;3.90;;;;;;;19.11;47.49;99223.41;105914;1254;61428;-82
2023/11/03 09:28:10;;;;;;;4.40;3.90;;;;;;;19.46;46.51;99222.44;105856;1253;59595;-79
2023/11/03 09:30:38;;;;;;;7.60;4.30;;;;;;;19.83;46.20;99210.79;105862;1253;71747;-79
2023/11/03 09:33:06;;;;;;;5.90;3.90;;;;;;;20.44;45.79;99213.54;105955;1254;70071;-81
2023/11/03 09:35:35;;;;;;;5.40;4.30;;;;;;;20.89;43.28;99216.63;105860;1254;74167;-75
2023/11/03 09:38:03;;;;;;;5.10;4.10;;;;;;;20.87;43.55;99209.27;105858;1253;59645;-81
2023/11/03 09:40:34;;;;;;;6.80;4.10;;;;;;;21.02;43.68;99201.41;105759;1253;59758;-79
2023/11/03 09:43:03;;;;;;;4.30;3.90;;;;;;;21.37;42.38;99200.40;105992;1253;73284;-80
2023/11/03 09:45:33;;;;;;;6.50;3.80;;;;;;;21.75;41.87;99217.07;106090;1253;70308;-81
2023/11/03 09:48:00;;;;;;;3.90;3.60;;;;;;;22.06;40.52;99198.27;105932;1253;74966;-79
2023/11/03 09:50:28;;;;;;;3.30;3.00;;;;;;;22.24;39.26;99197.75;106192;1260;59727;-80
2023/11/03 09:52:55;;;;;;;4.70;3.20;;;;;;;22.20;39.03;99200.98;106111;1253;60189;-80
2023/11/03 09:55:23;;;;;;;4.70;3.80;;;;;;;22.02;38.48;99195.21;106146;1253;71233;-80
2023/11/03 09:57:55;;;;;;;5.60;3.60;;;;;;;21.93;39.00;99188.80;105936;1260;69339;-81
2023/11/03 10:00:23;;;;;;;5.70;3.40;;;;;;;22.10;38.66;99194.36;106093;1254;74761;-79
2023/11/03 10:02:50;;;;;;;3.80;3.30;;;;;;;22.31;38.91;99192.98;105872;1256;59770;-79
2023/11/03 10:05:19;;;;;;;4.40;3.60;;;;;;;22.63;38.12;99188.03;105944;1253;61008;-81
2023/11/03 10:07:52;;;;;;;4.10;3.50;;;;;;;22.98;38.06;99182.39;105865;1253;72945;-80
2023/11/03 10:10:20;;;;;;;4.50;3.40;;;;;;;23.24;37.93;99183.71;105991;1258;70464;-79
2023/11/03 10:12:48;;;;;;;5.80;3.80;;;;;;;23.54;37.56;99174.27;105947;1257;72002;-77
2023/11/03 10:15:15;;;;;;;4.70;3.80;;;;;;;23.82;37.07;99173.10;106485;1253;59749;-76
2023/11/03 10:17:44;;;;;;;4.90;4.10;;;;;;;24.14;36.81;99169.88;107468;1252;59718;-78
2023/11/03 10:20:13;;;;;;;4.60;4.10;;;;;;;24.46;36.57;99158.98;106382;1255;75209;-79
2023/11/03 10:22:40;;;;;;;6.00;4.10;;;;;;;24.64;35.52;99169.04;106289;1251;72336;-78
2023/11/03 10:25:08;;;;;;;5.00;3.30;;;;;;;24.66;35.84;99164.04;106801;1253;74642;-78
2023/11/03 10:27:36;;;;;;;4.90;3.90;;;;;;;24.66;35.64;99166.21;106675;1253;59622;-76
2023/11/03 10:30:06;;;;;;;4.90;3.90;;;;;;;24.74;35.46;99168.47;106526;1253;59752;-77
2023/11/03 10:32:35;;;;;;;7.10;4.70;;;;;;;24.85;35.54;99163.62;106470;1253;73121;-77
2023/11/03 10:35:03;;;;;;;6.80;4.30;;;;;;;25.08;35.11;99162.71;106943;1253;70137;-79
2023/11/03 10:37:37;;;;;;;7.00;4.10;;;;;;;25.29;34.82;99154.77;107237;1252;72753;-75
2023/11/03 10:40:05;;;;;;;5.40;3.50;;;;;;;25.53;34.63;99158.23;106917;1258;61243;-76
2023/11/03 10:42:38;;;;;;;6.20;4.00;;;;;;;25.82;33.96;99148.02;106850;1253;60302;-76
2023/11/03 10:45:05;;;;;;;10.00;4.50;;;;;;;25.85;33.89;99140.77;106614;1252;73462;-77
2023/11/03 10:47:47;;;;;;;6.40;3.30;;;;;;;25.92;34.01;99139.05;106650;1254;71085;-77
2023/11/03 10:50:16;;;;;;;5.10;3.70;;;;;;;25.98;33.63;99136.23;106845;1253;72418;-77
2023/11/03 10:52:47;;;;;;;5.00;4.00;;;;;;;25.92;33.55;99136.51;106737;1257;60334;-75
2023/11/03 10:55:25;;;;;;;5.90;3.80;;;;;;;25.86;33.60;99132.33;106540;1253;60486;-75
2023/11/03 10:57:55;;;;;;;8.60;3.90;;;;;;;25.85;33.61;99126.46;106546;1253;73030;-76
2023/11/03 11:00:26;;;;;;;6.30;4.00;;;;;;;25.89;33.55;99124.85;106661;1253;71680;-74
2023/11/03 11:03:16;;;;;;;5.10;3.50;;;;;;;25.87;33.36;99119.69;106609;1253;73190;-76
2023/11/03 11:06:01;;;;;;;7.70;4.50;;;;;;;25.79;33.29;99122.31;106558;1254;60928;-77
2023/11/03 11:08:30;;;;;;;6.30;3.80;;;;;;;25.73;33.66;99120.45;106972;1253;62297;-76
2023/11/03 11:10:58;;;;;;;6.00;3.70;;;;;;;25.90;33.48;99117.30;106522;1259;73619;-75
2023/11/03 11:13:25;;;;;;;5.10;4.10;;;;;;;25.94;32.96;99125.16;106838;1253;69275;-74
2023/11/03 11:15:56;;;;;;;5.80;3.90;;;;;;;25.74;33.17;99116.75;106591;1253;72716;-76
2023/11/03 11:18:26;;;;;;;8.20;4.20;;;;;;;25.59;33.61;99116.80;106656;1252;62005;-73
2023/11/03 11:20:55;;;;;;;7.30;3.80;;;;;;;25.71;33.37;99112.58;106671;1254;59549;-79
2023/11/03 11:23:23;;;;;;;6.80;4.20;;;;;;;25.94;33.33;99104.04;106774;1253;72647;-76
2023/11/03 11:25:50;;;;;;;12.00;4.00;;;;;;;26.23;32.89;99105.91;106512;1260;68633;-77